createdAt,value
2019-03-22T00:00:36.988Z,64.37
2019-03-22T00:03:06.836Z,59.30
2019-03-22T00:05:36.969Z,124.83
2019-03-22T00:08:06.423Z,183.47
2019-03-22T00:10:36.577Z,243.42
2019-03-22T00:13:06.398Z,773.42
2019-03-22T00:15:36.044Z,487.42
2019-03-22T00:18:05.815Z,173.95
2019-03-22T00:20:35.456Z,146.60
2019-03-22T00:23:05.317Z,374.58
2019-03-22T00:25:35.248Z,574.12
2019-03-22T00:28:05.207Z,262.15
2019-03-22T00:30:34.658Z,172.57
2019-03-22T00:33:04.556Z,123.15
2019-03-22T00:35:34.313Z,102.78
2019-03-22T00:38:03.990Z,104.53
2019-03-22T00:40:33.830Z,128.47
2019-03-22T00:43:03.759Z,126.18
2019-03-22T00:45:33.212Z,178.72
2019-03-22T00:48:02.776Z,200.22
2019-03-22T00:50:32.523Z,187.55
2019-03-22T00:53:02.678Z,108.40
2019-03-22T00:55:32.739Z,131.10
2019-03-22T00:58:02.484Z,130.47
2019-03-22T01:00:32.131Z,78.70
2019-03-22T01:03:01.760Z,49.13
2019-03-22T01:05:31.407Z,70.28
2019-03-22T01:08:01.050Z,197.60
2019-03-22T01:10:30.825Z,300.18
2019-03-22T01:13:00.668Z,142.35
2019-03-22T01:15:30.323Z,76.77
2019-03-22T01:17:59.954Z,65.62
2019-03-22T01:20:29.399Z,83.25
2019-03-22T01:22:59.128Z,117.37
2019-03-22T01:25:29.051Z,88.55
2019-03-22T01:27:59.558Z,102.92
2019-03-22T01:30:29.087Z,123.53
2019-03-22T01:32:58.993Z,97.33
2019-03-22T01:35:28.723Z,87.88
2019-03-22T01:37:58.539Z,55.80
2019-03-22T01:40:28.568Z,50.45
2019-03-22T01:42:58.445Z,55.00
2019-03-22T01:45:28.034Z,40.30
2019-03-22T01:47:57.674Z,36.60
2019-03-22T01:50:27.326Z,36.90
2019-03-22T01:52:57.073Z,65.22
2019-03-22T01:55:26.614Z,74.70
2019-03-22T01:57:56.487Z,105.32
2019-03-22T02:00:26.399Z,177.43
2019-03-22T02:02:56.141Z,188.42
2019-03-22T02:05:25.644Z,154.27
2019-03-22T02:07:55.306Z,85.67
2019-03-22T02:10:25.462Z,93.47
2019-03-22T02:12:55.081Z,85.90
2019-03-22T02:15:24.628Z,84.15
2019-03-22T02:17:54.543Z,70.75
2019-03-22T02:20:24.526Z,107.25
2019-03-22T02:22:54.738Z,184.78
2019-03-22T02:25:24.479Z,197.78
2019-03-22T02:28:04.073Z,110.07
2019-03-22T02:30:27.657Z,104.32
2019-03-22T02:32:57.138Z,121.92
2019-03-22T02:35:29.076Z,71.67
2019-03-22T02:37:58.179Z,79.60
2019-03-22T02:40:27.842Z,107.37
2019-03-22T02:42:57.682Z,106.10
2019-03-22T02:45:27.709Z,132.67
2019-03-22T02:47:57.586Z,97.53
2019-03-22T02:50:27.048Z,97.33
2019-03-22T02:52:56.576Z,90.72
2019-03-22T02:55:26.525Z,74.12
2019-03-22T02:57:56.297Z,134.82
2019-03-22T03:00:26.015Z,127.12
2019-03-22T03:02:55.652Z,34.95
2019-03-22T03:05:25.364Z,133.20
2019-03-22T06:45:00.357Z,649.20
2019-03-22T06:47:30.015Z,647.25
2019-03-22T06:49:59.707Z,491.73
2019-03-22T06:52:29.307Z,433.38
2019-03-22T06:54:59.176Z,889.00
2019-03-22T06:57:28.725Z,784.50
2019-03-22T07:00:06.355Z,657.95
2019-03-22T07:02:29.317Z,464.55
2019-03-22T07:04:59.026Z,534.92
2019-03-22T07:07:28.451Z,467.70
2019-03-22T07:09:58.022Z,376.90
2019-03-22T07:12:27.649Z,455.40
2019-03-22T07:14:57.206Z,338.18
2019-03-22T07:17:26.975Z,398.77
2019-03-22T07:19:56.438Z,374.85
2019-03-22T07:22:26.087Z,437.02
2019-03-22T07:24:56.672Z,292.18
2019-03-22T07:27:26.705Z,552.73
2019-03-22T07:29:56.180Z,381.77
2019-03-22T07:32:25.846Z,357.73
2019-03-22T07:34:55.415Z,259.43
2019-03-22T07:37:24.933Z,461.95
2019-03-22T07:39:54.560Z,369.50
2019-03-22T07:42:24.024Z,294.82
2019-03-22T07:44:53.580Z,327.30
2019-03-22T07:47:23.729Z,309.45
2019-03-22T07:49:53.374Z,191.98
2019-03-22T07:52:22.820Z,199.35
2019-03-22T07:54:52.588Z,185.28
2019-03-22T07:57:22.053Z,223.95
2019-03-22T07:59:51.556Z,225.05
2019-03-22T08:02:21.412Z,201.60
2019-03-22T08:04:51.147Z,237.17
2019-03-22T08:07:21.304Z,187.03
2019-03-22T08:09:51.526Z,198.47
2019-03-22T08:12:21.772Z,194.02
2019-03-22T08:14:51.245Z,168.15
2019-03-22T08:17:20.920Z,202.93
2019-03-22T08:19:51.713Z,179.78
2019-03-22T08:22:21.274Z,167.65
2019-03-22T08:24:50.850Z,149.18
2019-03-22T08:27:20.599Z,146.40
2019-03-22T08:29:50.178Z,176.85
2019-03-22T08:32:19.714Z,136.62
2019-03-22T08:34:49.294Z,127.40
2019-03-22T08:37:18.728Z,130.15
2019-03-22T08:39:48.154Z,125.42
2019-03-22T08:42:17.863Z,128.12
2019-03-22T08:44:47.304Z,117.80
2019-03-22T08:47:16.961Z,137.65
2019-03-22T08:49:47.271Z,131.43
2019-03-22T08:52:17.224Z,137.92
2019-03-22T08:54:47.065Z,119.22
2019-03-22T08:57:16.843Z,124.30
2019-03-22T08:59:46.568Z,130.40
2019-03-22T09:02:16.257Z,147.57
2019-03-22T09:04:46.069Z,154.07
2019-03-22T09:07:15.530Z,119.80
2019-03-22T09:09:45.601Z,133.55
2019-03-22T09:12:15.471Z,124.60
2019-03-22T09:14:45.395Z,123.45
2019-03-22T09:17:15.444Z,118.65
2019-03-22T09:19:45.241Z,120.40
2019-03-22T09:22:14.726Z,117.30
2019-03-22T09:24:45.128Z,111.05
2019-03-22T09:27:14.564Z,103.70
2019-03-22T09:29:43.958Z,112.00
2019-03-22T09:32:13.377Z,108.37
2019-03-22T09:34:43.313Z,106.10
2019-03-22T09:37:13.140Z,109.70
2019-03-22T09:39:43.164Z,111.68
2019-03-22T09:42:12.935Z,88.10
2019-03-22T09:44:44.218Z,87.08
2019-03-22T09:47:16.410Z,86.40
2019-03-22T09:49:45.562Z,85.65
2019-03-22T09:52:15.136Z,83.07
2019-03-22T09:54:45.050Z,81.08
2019-03-22T09:57:14.675Z,78.60
2019-03-22T09:59:45.532Z,77.62
2019-03-22T10:02:15.321Z,71.57
2019-03-22T10:04:45.048Z,69.80
2019-03-22T10:07:15.161Z,69.50
2019-03-22T10:09:45.115Z,69.30
2019-03-22T10:12:15.288Z,71.45
2019-03-22T10:14:45.360Z,64.65
2019-03-22T10:17:14.888Z,65.67
2019-03-22T10:19:46.055Z,60.30
2019-03-22T10:22:15.538Z,54.48
2019-03-22T10:24:45.418Z,57.13
2019-03-22T10:27:17.115Z,51.48
2019-03-22T10:29:46.352Z,52.67
2019-03-22T10:32:15.961Z,46.08
2019-03-22T10:34:45.873Z,48.65
2019-03-22T10:37:16.587Z,50.73
2019-03-22T10:39:46.001Z,47.75
2019-03-22T10:42:15.502Z,52.03
2019-03-22T10:44:45.671Z,48.60
2019-03-22T10:47:18.029Z,53.85
2019-03-22T10:49:47.672Z,51.85
2019-03-22T10:52:17.461Z,51.70
2019-03-22T10:54:47.215Z,45.98
2019-03-22T10:57:16.903Z,47.38
2019-03-22T10:59:46.644Z,48.60
2019-03-22T11:02:16.302Z,44.55
2019-03-22T11:04:45.848Z,41.88
2019-03-22T11:07:15.732Z,42.35
2019-03-22T11:09:45.588Z,47.03
2019-03-22T11:12:15.064Z,41.28
2019-03-22T11:14:45.740Z,43.17
2019-03-22T11:17:15.659Z,45.00
2019-03-22T11:19:45.510Z,46.40
2019-03-22T11:22:16.827Z,43.68
2019-03-22T11:24:46.384Z,43.25
2019-03-22T11:27:16.240Z,38.42
2019-03-22T11:29:45.793Z,37.55
2019-03-22T11:32:15.637Z,38.42
2019-03-22T11:34:45.406Z,34.08
2019-03-22T11:37:15.095Z,34.00
2019-03-22T11:39:44.765Z,33.63
2019-03-22T11:42:14.874Z,33.75
2019-03-22T11:44:44.707Z,30.95
2019-03-22T11:47:14.699Z,29.75
2019-03-22T11:49:44.437Z,29.42
2019-03-22T11:52:14.867Z,31.75
2019-03-22T11:54:45.313Z,27.50
2019-03-22T11:57:15.095Z,28.20
2019-03-22T11:59:44.755Z,30.20
2019-03-22T12:02:22.176Z,31.02
2019-03-22T12:04:45.852Z,29.15
2019-03-22T12:07:16.743Z,28.32
2019-03-22T12:09:46.477Z,31.20
2019-03-22T12:12:16.200Z,29.85
2019-03-22T12:14:46.258Z,29.95
2019-03-22T12:17:16.218Z,31.02
2019-03-22T12:19:46.055Z,29.12
2019-03-22T12:22:15.657Z,28.90
2019-03-22T12:24:45.488Z,30.05
2019-03-22T12:27:14.934Z,28.23
2019-03-22T12:29:45.138Z,30.80
2019-03-22T12:32:14.987Z,26.27
2019-03-22T12:34:44.838Z,30.55
2019-03-22T12:37:15.891Z,29.60
2019-03-22T12:39:45.616Z,29.65
2019-03-22T12:42:15.293Z,29.95
2019-03-22T12:45:05.616Z,30.57
2019-03-22T12:47:35.393Z,28.47
2019-03-22T12:50:07.453Z,29.32
2019-03-22T12:52:37.089Z,27.13
2019-03-22T12:55:08.949Z,28.77
2019-03-22T12:57:38.659Z,30.27
2019-03-22T13:00:14.717Z,25.75
2019-03-22T13:02:44.562Z,29.55
2019-03-22T13:05:14.753Z,32.98
2019-03-22T13:07:44.514Z,30.88
2019-03-22T13:10:17.821Z,27.95
2019-03-22T13:12:49.244Z,31.35
2019-03-22T13:15:19.226Z,30.88
2019-03-22T13:17:52.373Z,28.70
2019-03-22T13:20:22.259Z,31.12
2019-03-22T13:22:52.219Z,25.30
2019-03-22T13:25:22.063Z,25.65
2019-03-22T13:27:51.873Z,24.23
2019-03-22T13:30:30.660Z,32.85
2019-03-22T13:33:00.311Z,22.40
2019-03-22T13:35:29.903Z,23.47
2019-03-22T13:38:02.829Z,26.55
2019-03-22T13:40:32.718Z,26.82
2019-03-22T13:43:02.347Z,26.48
2019-03-22T13:45:32.300Z,28.90
2019-03-22T13:48:01.974Z,29.27
2019-03-22T13:50:31.668Z,35.20
2019-03-22T13:53:01.338Z,28.15
2019-03-22T13:55:31.285Z,29.20
2019-03-22T13:58:01.144Z,30.60
2019-03-22T14:00:31.285Z,31.15
2019-03-22T14:03:03.240Z,31.75
2019-03-22T14:05:32.314Z,30.27
2019-03-22T14:08:02.260Z,30.85
2019-03-22T14:10:37.516Z,32.58
2019-03-22T14:13:07.550Z,29.87
2019-03-22T14:15:37.306Z,31.37
2019-03-22T14:18:07.348Z,33.23
2019-03-22T14:20:37.157Z,34.48
2019-03-22T14:23:06.617Z,31.15
2019-03-22T14:25:36.186Z,28.47
2019-03-22T14:28:05.731Z,31.33
2019-03-22T14:30:36.585Z,31.65
2019-03-22T14:33:13.365Z,29.20
2019-03-22T14:35:37.850Z,31.20
2019-03-22T14:38:07.603Z,32.23
2019-03-22T14:40:37.729Z,33.90
2019-03-22T14:43:08.743Z,33.35
2019-03-22T14:45:40.683Z,31.60
2019-03-22T14:48:10.435Z,34.08
2019-03-22T14:50:40.043Z,32.78
2019-03-22T14:53:09.713Z,34.15
2019-03-22T14:55:41.046Z,32.15
2019-03-22T14:58:11.786Z,35.20
2019-03-22T15:00:41.457Z,32.53
2019-03-22T15:03:22.270Z,38.02
2019-03-22T15:05:44.228Z,41.53
2019-03-22T15:08:14.504Z,32.38
2019-03-22T15:10:44.223Z,34.75
2019-03-22T15:13:14.163Z,36.03
2019-03-22T15:15:45.780Z,33.53
2019-03-22T15:18:29.709Z,30.45
2019-03-22T15:21:18.324Z,35.40
2019-03-22T15:24:04.338Z,39.30
2019-03-22T15:26:54.120Z,39.05
2019-03-22T15:29:41.768Z,36.17
2019-03-22T15:32:27.067Z,37.28
2019-03-22T15:35:14.938Z,35.65
2019-03-22T15:37:46.155Z,36.38
2019-03-22T15:40:15.696Z,36.95
2019-03-22T15:42:45.076Z,34.27
2019-03-22T15:45:17.955Z,40.80
2019-03-22T15:47:48.738Z,34.58
2019-03-22T15:50:18.833Z,36.68
2019-03-22T15:52:48.498Z,37.35
2019-03-22T15:55:18.312Z,36.75
2019-03-22T15:57:48.133Z,37.48
2019-03-22T16:00:18.312Z,39.05
2019-03-22T16:02:47.928Z,35.78
2019-03-22T16:05:18.142Z,34.27
2019-03-22T16:07:47.863Z,41.80
2019-03-22T16:10:19.785Z,39.05
2019-03-22T16:12:50.909Z,36.38
2019-03-22T16:15:20.399Z,39.58
2019-03-22T16:17:50.415Z,38.83
2019-03-22T16:20:19.880Z,36.68
2019-03-22T16:22:49.406Z,40.08
2019-03-22T16:25:19.255Z,36.90
2019-03-22T16:27:48.738Z,39.55
2019-03-22T16:30:18.486Z,39.15
2019-03-22T16:32:48.043Z,40.28
2019-03-22T16:35:17.979Z,35.30
2019-03-22T16:37:47.627Z,38.60
2019-03-22T16:40:24.164Z,42.17
2019-03-22T16:42:48.435Z,36.25
2019-03-22T16:45:23.563Z,37.05
2019-03-22T16:47:53.215Z,37.38
2019-03-22T16:50:25.154Z,37.78
2019-03-22T16:52:55.357Z,37.78
2019-03-22T16:55:26.747Z,39.08
2019-03-22T16:57:57.399Z,47.70
2019-03-22T17:00:27.413Z,62.98
2019-03-22T17:02:57.255Z,74.40
2019-03-22T17:05:26.991Z,69.30
2019-03-22T17:07:56.608Z,72.92
2019-03-22T17:10:26.361Z,80.32
2019-03-22T17:12:55.842Z,81.05
2019-03-22T17:15:25.606Z,71.92
2019-03-22T17:17:55.634Z,83.60
2019-03-22T17:20:25.306Z,83.20
2019-03-22T17:22:55.263Z,87.27
2019-03-22T17:25:24.971Z,87.02
2019-03-22T17:28:13.993Z,96.90
2019-03-22T17:30:43.527Z,100.95
2019-03-22T17:33:13.129Z,99.90
2019-03-22T17:35:43.111Z,110.28
2019-03-22T17:38:12.568Z,104.15
2019-03-22T17:40:42.403Z,110.75
2019-03-22T17:43:12.758Z,112.92
2019-03-22T17:45:42.532Z,122.72
2019-03-22T17:48:12.198Z,140.55
2019-03-22T17:50:42.276Z,147.40
2019-03-22T17:53:12.054Z,153.32
2019-03-22T17:55:41.742Z,155.12
2019-03-22T17:58:11.464Z,151.78
2019-03-22T18:00:41.274Z,137.47
2019-03-22T18:03:11.056Z,154.53
2019-03-22T18:05:40.773Z,144.17
2019-03-22T18:08:11.102Z,147.43
2019-03-22T18:10:41.221Z,144.62
2019-03-22T18:13:10.881Z,138.62
2019-03-22T18:15:41.022Z,145.25
2019-03-22T18:18:10.730Z,136.32
2019-03-22T18:20:40.707Z,146.68
2019-03-22T18:23:10.246Z,158.47
2019-03-22T18:25:39.721Z,154.87
2019-03-22T18:28:09.206Z,169.17
2019-03-22T18:30:38.933Z,178.93
2019-03-22T18:33:09.168Z,172.93
2019-03-22T18:35:39.105Z,180.67
2019-03-22T18:38:08.769Z,176.65
2019-03-22T18:40:38.729Z,195.18
2019-03-22T18:43:08.661Z,207.75
2019-03-22T18:45:38.352Z,227.97
2019-03-22T18:48:08.018Z,278.73
2019-03-22T18:50:37.467Z,374.07
2019-03-22T18:53:07.297Z,322.45
2019-03-22T18:55:36.967Z,291.23
2019-03-22T18:58:06.873Z,252.32
2019-03-22T19:00:36.439Z,249.80
2019-03-22T19:03:06.137Z,235.28
2019-03-22T19:05:36.435Z,233.87
2019-03-22T19:08:05.900Z,306.25
2019-03-22T19:10:35.833Z,384.67
2019-03-22T19:13:07.849Z,339.63
2019-03-22T19:15:37.875Z,327.10
2019-03-22T19:18:07.503Z,260.65
2019-03-22T19:20:37.042Z,265.35
2019-03-22T19:23:06.689Z,261.98
2019-03-22T19:25:36.321Z,259.73
2019-03-22T19:28:06.041Z,239.08
2019-03-22T19:30:35.695Z,248.18
2019-03-22T19:33:05.440Z,240.62
2019-03-22T19:35:36.404Z,251.77
2019-03-22T19:38:06.307Z,253.02
2019-03-22T19:40:36.026Z,240.40
2019-03-22T19:43:05.720Z,282.07
2019-03-22T19:45:35.877Z,282.60
2019-03-22T19:48:05.618Z,293.63
2019-03-22T19:50:35.271Z,302.02
2019-03-22T19:53:06.458Z,283.45
2019-03-22T19:55:36.319Z,288.80
2019-03-22T19:58:06.199Z,280.60
2019-03-22T20:00:35.969Z,292.25
2019-03-22T20:03:07.088Z,341.95
2019-03-22T20:05:36.787Z,317.70
2019-03-22T20:08:06.750Z,395.63
2019-03-22T20:10:38.034Z,324.02
2019-03-22T20:13:07.505Z,352.80
2019-03-22T20:15:37.790Z,326.98
2019-03-22T20:18:07.572Z,435.78
2019-03-22T20:20:37.352Z,362.93
2019-03-22T20:23:06.806Z,389.80
2019-03-22T20:25:36.918Z,366.85
2019-03-22T20:28:06.588Z,550.25
2019-03-22T20:30:37.973Z,461.70
2019-03-22T20:33:07.718Z,502.15
2019-03-22T20:35:37.377Z,460.50
2019-03-22T20:38:06.920Z,523.97
2019-03-22T20:40:36.692Z,695.38
2019-03-22T20:43:06.316Z,651.27
2019-03-22T20:45:37.012Z,566.12
2019-03-22T20:48:06.629Z,580.67
2019-03-22T20:50:36.872Z,542.85
2019-03-22T20:53:06.573Z,532.45
2019-03-22T20:55:37.698Z,609.80
2019-03-22T20:58:07.384Z,641.48
2019-03-22T21:00:37.283Z,604.67
2019-03-22T21:03:08.061Z,553.17
2019-03-22T21:05:37.766Z,465.50
2019-03-22T21:08:07.474Z,411.23
2019-03-22T21:10:37.280Z,432.98
2019-03-22T21:13:06.867Z,428.90
2019-03-22T21:15:37.171Z,392.48
2019-03-22T21:18:07.120Z,387.52
2019-03-22T21:20:37.594Z,409.00
2019-03-22T21:23:07.563Z,409.10
2019-03-22T21:25:37.223Z,474.70
2019-03-22T21:28:07.253Z,434.80
2019-03-22T21:30:36.703Z,460.50
2019-03-22T21:33:06.404Z,433.35
2019-03-22T21:35:37.745Z,436.23
2019-03-22T21:38:11.102Z,415.23
2019-03-22T21:40:39.226Z,411.98
2019-03-22T21:43:08.921Z,431.37
2019-03-22T21:45:38.578Z,362.25
2019-03-22T21:48:08.347Z,351.82
2019-03-22T21:50:37.808Z,361.75
2019-03-22T21:53:08.187Z,315.00
2019-03-22T21:55:38.351Z,369.02
2019-03-22T21:58:07.987Z,327.90
2019-03-22T22:00:37.708Z,340.55
2019-03-22T22:03:07.377Z,332.90
2019-03-22T22:05:47.200Z,322.17
2019-03-22T22:08:08.605Z,317.02
2019-03-22T22:10:38.254Z,300.05
2019-03-22T22:13:08.903Z,313.65
2019-03-22T22:15:38.546Z,311.82
2019-03-22T22:18:08.325Z,289.82
2019-03-22T22:20:37.798Z,282.02
2019-03-22T22:23:07.246Z,256.38
2019-03-22T22:25:36.791Z,235.05
2019-03-22T22:28:07.937Z,251.07
2019-03-22T22:30:37.410Z,262.45
2019-03-22T22:33:06.795Z,256.75
2019-03-22T22:35:36.245Z,256.50
2019-03-22T22:38:05.976Z,270.60
2019-03-22T22:40:35.467Z,257.90
2019-03-22T22:43:05.178Z,269.65
2019-03-22T22:45:34.643Z,256.93
2019-03-22T22:48:04.471Z,234.18
2019-03-22T22:50:34.134Z,210.72
2019-03-22T22:53:03.858Z,217.05
2019-03-22T22:55:33.910Z,206.15
2019-03-22T22:58:04.121Z,202.18
2019-03-22T23:00:34.073Z,198.47
2019-03-22T23:03:03.526Z,190.20
2019-03-22T23:05:33.166Z,181.70
2019-03-22T23:08:03.144Z,181.75
2019-03-22T23:10:32.578Z,178.65
2019-03-22T23:13:02.304Z,189.47
2019-03-22T23:15:32.001Z,174.30
2019-03-22T23:18:02.578Z,181.67
2019-03-22T23:20:32.050Z,159.30
2019-03-22T23:23:01.471Z,152.70
2019-03-22T23:25:31.010Z,151.95
2019-03-22T23:28:01.776Z,157.35
2019-03-22T23:30:31.221Z,147.82
2019-03-22T23:33:00.978Z,140.62
2019-03-22T23:35:30.625Z,142.53
2019-03-22T23:38:00.417Z,144.45
2019-03-22T23:40:30.084Z,138.30
2019-03-22T23:42:59.516Z,139.90
2019-03-22T23:45:29.309Z,141.88
2019-03-22T23:47:59.026Z,144.25
2019-03-22T23:50:28.667Z,143.20
2019-03-22T23:52:58.446Z,139.70
2019-03-22T23:55:28.316Z,138.60
2019-03-22T23:57:58.897Z,140.50
